Terminal Aerodrome Forecast
Issued by NWS

Home | Current Version | Previous Version | Text Only | Print | Product List | Glossary On
Versions: 1 2 3 4 5 6 7 8 9 10 11 12 13
000
FTUS46 KMTR 292336
TAFOAK
TAF
KOAK 292336Z 3000/3106 30015KT P6SM SKC
     FM300400 30005KT P6SM SKC
     FM301200 30004KT P6SM SCT010
     FM301700 29008KT P6SM FEW010
     FM302100 30015KT P6SM FEW010 SCT250
     FM310400 30010KT P6SM SCT250=

USA.gov is the U.S. government's official web portal to all federal, state and local government web resources and services.